sensor_id;sensor_type;location;lat;lon;timestamp;pressure;altitude;pressure_sealevel;temperature;humidity
44839;BME280;30576;42.098;24.876;2023-05-15T00:00:48;99999.97;;;14.79;91.24
44839;BME280;30576;42.098;24.876;2023-05-15T00:03:13;99995.72;;;14.72;91.46
44839;BME280;30576;42.098;24.876;2023-05-15T00:05:38;99982.47;;;14.70;91.81
44839;BME280;30576;42.098;24.876;2023-05-15T00:08:04;99989.28;;;14.80;91.09
44839;BME280;30576;42.098;24.876;2023-05-15T00:10:29;99976.19;;;14.74;91.47
44839;BME280;30576;42.098;24.876;2023-05-15T00:12:55;99965.31;;;14.83;91.42
44839;BME280;30576;42.098;24.876;2023-05-15T00:15:20;99966.13;;;14.85;90.74
44839;BME280;30576;42.098;24.876;2023-05-15T00:17:45;99956.53;;;14.81;90.94
44839;BME280;30576;42.098;24.876;2023-05-15T00:20:11;99953.16;;;14.75;91.33
44839;BME280;30576;42.098;24.876;2023-05-15T00:22:36;99955.72;;;14.78;90.77
44839;BME280;30576;42.098;24.876;2023-05-15T00:25:01;99950.63;;;14.70;90.91
44839;BME280;30576;42.098;24.876;2023-05-15T00:27:27;99946.34;;;14.66;91.07
44839;BME280;30576;42.098;24.876;2023-05-15T00:29:52;99942.16;;;14.56;91.26
44839;BME280;30576;42.098;24.876;2023-05-15T00:32:17;99941.50;;;14.47;91.66
44839;BME280;30576;42.098;24.876;2023-05-15T00:34:43;99958.13;;;14.54;91.40
44839;BME280;30576;42.098;24.876;2023-05-15T00:37:08;99953.44;;;14.64;90.76
44839;BME280;30576;42.098;24.876;2023-05-15T00:39:34;99949.06;;;14.63;89.77
44839;BME280;30576;42.098;24.876;2023-05-15T00:42:00;99952.13;;;14.47;90.39
44839;BME280;30576;42.098;24.876;2023-05-15T00:44:26;99955.63;;;14.48;90.14
44839;BME280;30576;42.098;24.876;2023-05-15T00:46:52;99953.09;;;14.43;90.53
44839;BME280;30576;42.098;24.876;2023-05-15T00:49:18;99945.09;;;14.45;90.38
44839;BME280;30576;42.098;24.876;2023-05-15T00:51:45;99945.63;;;14.58;89.63
44839;BME280;30576;42.098;24.876;2023-05-15T00:54:11;99936.91;;;14.53;89.88
44839;BME280;30576;42.098;24.876;2023-05-15T00:56:36;99926.44;;;14.48;90.10
44839;BME280;30576;42.098;24.876;2023-05-15T00:59:02;99927.28;;;14.48;89.51
44839;BME280;30576;42.098;24.876;2023-05-15T01:01:28;99920.31;;;14.46;90.00
44839;BME280;30576;42.098;24.876;2023-05-15T01:03:57;99925.47;;;14.50;90.03
44839;BME280;30576;42.098;24.876;2023-05-15T01:06:22;99918.44;;;14.49;89.92
44839;BME280;30576;42.098;24.876;2023-05-15T01:08:48;99900.75;;;14.48;89.63
44839;BME280;30576;42.098;24.876;2023-05-15T01:11:14;99894.78;;;14.40;90.47
44839;BME280;30576;42.098;24.876;2023-05-15T01:13:40;99892.22;;;14.37;89.64
44839;BME280;30576;42.098;24.876;2023-05-15T01:16:06;99893.72;;;14.47;89.90
44839;BME280;30576;42.098;24.876;2023-05-15T01:18:31;99893.94;;;14.40;89.98
44839;BME280;30576;42.098;24.876;2023-05-15T01:23:45;99895.44;;;14.48;90.08
44839;BME280;30576;42.098;24.876;2023-05-15T01:28:50;99877.06;;;14.41;91.10
44839;BME280;30576;42.098;24.876;2023-05-15T01:31:21;99882.25;;;14.45;90.56
44839;BME280;30576;42.098;24.876;2023-05-15T01:33:49;99879.47;;;14.50;91.27
44839;BME280;30576;42.098;24.876;2023-05-15T01:36:20;99870.66;;;14.49;90.35
44839;BME280;30576;42.098;24.876;2023-05-15T01:38:52;99861.81;;;14.49;90.86
44839;BME280;30576;42.098;24.876;2023-05-15T01:41:25;99856.69;;;14.43;91.00
44839;BME280;30576;42.098;24.876;2023-05-15T01:43:56;99853.19;;;14.41;90.79
44839;BME280;30576;42.098;24.876;2023-05-15T01:46:23;99870.91;;;14.40;91.12
44839;BME280;30576;42.098;24.876;2023-05-15T01:48:49;99858.59;;;14.38;90.89
44839;BME280;30576;42.098;24.876;2023-05-15T01:51:16;99875.97;;;14.49;90.56
44839;BME280;30576;42.098;24.876;2023-05-15T01:53:42;99870.66;;;14.49;90.38
44839;BME280;30576;42.098;24.876;2023-05-15T01:56:10;99865.06;;;14.59;90.06
44839;BME280;30576;42.098;24.876;2023-05-15T01:58:36;99858.94;;;14.57;90.23
44839;BME280;30576;42.098;24.876;2023-05-15T02:01:03;99853.69;;;14.55;90.12
44839;BME280;30576;42.098;24.876;2023-05-15T02:03:29;99847.94;;;14.39;89.87
44839;BME280;30576;42.098;24.876;2023-05-15T02:05:57;99858.38;;;14.45;90.41
44839;BME280;30576;42.098;24.876;2023-05-15T02:08:22;99823.94;;;14.42;89.96
44839;BME280;30576;42.098;24.876;2023-05-15T02:10:50;99831.66;;;14.51;89.35
44839;BME280;30576;42.098;24.876;2023-05-15T02:13:16;99824.00;;;14.41;90.41
44839;BME280;30576;42.098;24.876;2023-05-15T02:15:41;99808.25;;;14.35;91.11
44839;BME280;30576;42.098;24.876;2023-05-15T02:18:07;99799.59;;;14.28;91.73
44839;BME280;30576;42.098;24.876;2023-05-15T02:20:32;99808.63;;;14.21;92.50
44839;BME280;30576;42.098;24.876;2023-05-15T02:22:58;99821.47;;;14.36;91.58
44839;BME280;30576;42.098;24.876;2023-05-15T02:25:30;99844.97;;;14.19;92.54
44839;BME280;30576;42.098;24.876;2023-05-15T02:27:59;99851.22;;;14.16;92.70
44839;BME280;30576;42.098;24.876;2023-05-15T02:30:37;99853.81;;;14.18;92.89
44839;BME280;30576;42.098;24.876;2023-05-15T02:35:36;99857.53;;;13.77;95.78
44839;BME280;30576;42.098;24.876;2023-05-15T02:38:10;99844.34;;;13.74;97.32
44839;BME280;30576;42.098;24.876;2023-05-15T02:40:36;99838.53;;;13.94;96.46
44839;BME280;30576;42.098;24.876;2023-05-15T02:43:03;99858.69;;;14.02;95.02
44839;BME280;30576;42.098;24.876;2023-05-15T02:45:29;99867.81;;;13.90;95.80
44839;BME280;30576;42.098;24.876;2023-05-15T02:47:55;99850.34;;;13.83;97.13
44839;BME280;30576;42.098;24.876;2023-05-15T02:50:20;99848.59;;;13.82;95.06
44839;BME280;30576;42.098;24.876;2023-05-15T02:52:45;99852.16;;;13.81;96.17
44839;BME280;30576;42.098;24.876;2023-05-15T02:55:11;99840.97;;;14.02;95.16
44839;BME280;30576;42.098;24.876;2023-05-15T02:57:36;99851.53;;;14.04;95.02
44839;BME280;30576;42.098;24.876;2023-05-15T03:00:02;99852.22;;;14.12;94.50
44839;BME280;30576;42.098;24.876;2023-05-15T03:02:30;99853.91;;;14.14;93.30
44839;BME280;30576;42.098;24.876;2023-05-15T03:04:55;99845.88;;;14.18;93.64
44839;BME280;30576;42.098;24.876;2023-05-15T03:07:21;99843.81;;;14.29;92.45
44839;BME280;30576;42.098;24.876;2023-05-15T03:09:46;99837.66;;;14.27;93.00
44839;BME280;30576;42.098;24.876;2023-05-15T03:12:12;99847.28;;;14.31;92.89
44839;BME280;30576;42.098;24.876;2023-05-15T03:14:38;99852.81;;;14.23;93.20
44839;BME280;30576;42.098;24.876;2023-05-15T03:17:03;99846.47;;;14.29;92.94
44839;BME280;30576;42.098;24.876;2023-05-15T03:19:28;99843.81;;;14.29;92.51
44839;BME280;30576;42.098;24.876;2023-05-15T03:21:54;99851.59;;;14.35;91.98
44839;BME280;30576;42.098;24.876;2023-05-15T03:24:19;99849.84;;;14.34;91.76
44839;BME280;30576;42.098;24.876;2023-05-15T03:26:45;99841.00;;;14.35;92.28
44839;BME280;30576;42.098;24.876;2023-05-15T03:29:10;99838.16;;;14.41;91.97
44839;BME280;30576;42.098;24.876;2023-05-15T03:31:36;99827.63;;;14.38;92.21
44839;BME280;30576;42.098;24.876;2023-05-15T03:34:01;99821.13;;;14.17;93.00
44839;BME280;30576;42.098;24.876;2023-05-15T03:36:26;99826.22;;;14.25;92.74
44839;BME280;30576;42.098;24.876;2023-05-15T03:38:51;99826.41;;;14.19;93.09
44839;BME280;30576;42.098;24.876;2023-05-15T03:41:17;99830.69;;;14.24;93.36
44839;BME280;30576;42.098;24.876;2023-05-15T03:43:42;99827.13;;;14.24;93.81
44839;BME280;30576;42.098;24.876;2023-05-15T03:46:07;99827.84;;;14.30;93.53
44839;BME280;30576;42.098;24.876;2023-05-15T03:48:33;99839.66;;;14.50;92.58
44839;BME280;30576;42.098;24.876;2023-05-15T03:50:58;99844.16;;;14.48;92.33
44839;BME280;30576;42.098;24.876;2023-05-15T03:53:23;99839.03;;;14.42;92.93
44839;BME280;30576;42.098;24.876;2023-05-15T03:55:48;99830.66;;;14.56;92.38
44839;BME280;30576;42.098;24.876;2023-05-15T03:58:14;99834.97;;;14.61;92.10
44839;BME280;30576;42.098;24.876;2023-05-15T04:00:39;99845.53;;;14.63;91.46
44839;BME280;30576;42.098;24.876;2023-05-15T04:03:04;99849.06;;;14.63;91.42
44839;BME280;30576;42.098;24.876;2023-05-15T04:05:30;99846.94;;;14.75;91.49
44839;BME280;30576;42.098;24.876;2023-05-15T04:07:55;99844.56;;;14.65;91.61
44839;BME280;30576;42.098;24.876;2023-05-15T04:10:20;99834.72;;;14.69;91.40
44839;BME280;30576;42.098;24.876;2023-05-15T04:12:45;99837.47;;;14.66;91.66
44839;BME280;30576;42.098;24.876;2023-05-15T04:15:13;99838.88;;;14.78;92.41
44839;BME280;30576;42.098;24.876;2023-05-15T04:17:38;99828.91;;;14.86;91.92
44839;BME280;30576;42.098;24.876;2023-05-15T04:20:04;99825.38;;;14.85;91.83
44839;BME280;30576;42.098;24.876;2023-05-15T04:22:30;99823.56;;;14.88;92.80
44839;BME280;30576;42.098;24.876;2023-05-15T04:24:56;99823.00;;;15.06;91.86
44839;BME280;30576;42.098;24.876;2023-05-15T04:27:21;99834.03;;;15.20;91.54
44839;BME280;30576;42.098;24.876;2023-05-15T04:29:46;99837.25;;;15.30;91.11
44839;BME280;30576;42.098;24.876;2023-05-15T04:32:12;99839.22;;;14.97;89.60
44839;BME280;30576;42.098;24.876;2023-05-15T04:34:37;99842.81;;;15.22;88.94
44839;BME280;30576;42.098;24.876;2023-05-15T04:37:02;99852.31;;;15.31;88.54
44839;BME280;30576;42.098;24.876;2023-05-15T04:39:28;99854.06;;;15.32;88.57
44839;BME280;30576;42.098;24.876;2023-05-15T04:41:54;99843.03;;;15.45;88.38
44839;BME280;30576;42.098;24.876;2023-05-15T04:44:19;99855.28;;;15.49;88.23
44839;BME280;30576;42.098;24.876;2023-05-15T04:46:45;99858.38;;;15.63;88.03
44839;BME280;30576;42.098;24.876;2023-05-15T04:49:10;99851.69;;;15.78;86.63
44839;BME280;30576;42.098;24.876;2023-05-15T04:51:35;99855.28;;;15.77;86.38
44839;BME280;30576;42.098;24.876;2023-05-15T04:54:01;99859.88;;;15.70;86.92
44839;BME280;30576;42.098;24.876;2023-05-15T04:56:26;99855.88;;;15.85;86.36
44839;BME280;30576;42.098;24.876;2023-05-15T04:58:51;99859.59;;;15.80;85.43
44839;BME280;30576;42.098;24.876;2023-05-15T05:01:17;99863.44;;;15.71;85.81
44839;BME280;30576;42.098;24.876;2023-05-15T05:03:42;99863.75;;;15.88;85.45
44839;BME280;30576;42.098;24.876;2023-05-15T05:06:07;99864.41;;;15.95;84.38
44839;BME280;30576;42.098;24.876;2023-05-15T05:08:33;99859.78;;;16.00;83.82
44839;BME280;30576;42.098;24.876;2023-05-15T05:10:58;99867.31;;;15.87;83.98
44839;BME280;30576;42.098;24.876;2023-05-15T05:13:23;99865.16;;;15.99;83.36
44839;BME280;30576;42.098;24.876;2023-05-15T05:15:48;99862.31;;;16.03;82.18
44839;BME280;30576;42.098;24.876;2023-05-15T05:18:14;99851.84;;;15.99;82.83
44839;BME280;30576;42.098;24.876;2023-05-15T05:20:39;99852.47;;;16.07;83.20
44839;BME280;30576;42.098;24.876;2023-05-15T05:23:05;99855.03;;;16.10;82.92
44839;BME280;30576;42.098;24.876;2023-05-15T05:25:30;99854.91;;;16.13;80.97
44839;BME280;30576;42.098;24.876;2023-05-15T05:27:55;99857.78;;;16.07;80.97
44839;BME280;30576;42.098;24.876;2023-05-15T05:30:21;99851.03;;;16.22;80.84
44839;BME280;30576;42.098;24.876;2023-05-15T05:32:46;99855.41;;;16.48;80.47
44839;BME280;30576;42.098;24.876;2023-05-15T05:35:12;99859.03;;;16.47;81.21
44839;BME280;30576;42.098;24.876;2023-05-15T05:37:37;99868.16;;;16.40;82.05
44839;BME280;30576;42.098;24.876;2023-05-15T05:40:03;99853.53;;;16.52;81.75
44839;BME280;30576;42.098;24.876;2023-05-15T05:42:30;99851.91;;;16.71;80.10
44839;BME280;30576;42.098;24.876;2023-05-15T05:44:55;99856.13;;;16.77;78.76
44839;BME280;30576;42.098;24.876;2023-05-15T05:47:21;99861.19;;;16.61;78.82
44839;BME280;30576;42.098;24.876;2023-05-15T05:49:46;99864.94;;;16.79;75.68
44839;BME280;30576;42.098;24.876;2023-05-15T05:52:12;99868.88;;;16.69;78.12
44839;BME280;30576;42.098;24.876;2023-05-15T05:54:37;99865.69;;;16.82;78.33
44839;BME280;30576;42.098;24.876;2023-05-15T05:57:02;99873.06;;;16.99;77.49
44839;BME280;30576;42.098;24.876;2023-05-15T05:59:28;99863.94;;;17.05;76.71
44839;BME280;30576;42.098;24.876;2023-05-15T06:01:53;99863.66;;;17.13;76.63
44839;BME280;30576;42.098;24.876;2023-05-15T06:04:19;99859.69;;;17.01;76.78
44839;BME280;30576;42.098;24.876;2023-05-15T06:06:45;99864.66;;;16.87;78.73
44839;BME280;30576;42.098;24.876;2023-05-15T06:09:10;99863.91;;;17.07;77.06
44839;BME280;30576;42.098;24.876;2023-05-15T06:11:35;99862.66;;;16.93;77.30
44839;BME280;30576;42.098;24.876;2023-05-15T06:14:01;99863.91;;;16.83;78.26
44839;BME280;30576;42.098;24.876;2023-05-15T06:16:26;99872.91;;;17.04;77.18
44839;BME280;30576;42.098;24.876;2023-05-15T06:18:51;99877.56;;;16.74;77.56
44839;BME280;30576;42.098;24.876;2023-05-15T06:21:17;99877.03;;;16.64;77.33
44839;BME280;30576;42.098;24.876;2023-05-15T06:23:42;99871.09;;;16.81;75.94
44839;BME280;30576;42.098;24.876;2023-05-15T06:26:08;99870.47;;;16.98;76.78
44839;BME280;30576;42.098;24.876;2023-05-15T06:28:33;99869.34;;;17.04;78.86
44839;BME280;30576;42.098;24.876;2023-05-15T06:30:58;99874.78;;;17.00;77.19
44839;BME280;30576;42.098;24.876;2023-05-15T06:33:24;99876.75;;;17.19;74.67
44839;BME280;30576;42.098;24.876;2023-05-15T06:35:49;99872.91;;;17.04;73.76
44839;BME280;30576;42.098;24.876;2023-05-15T06:38:14;99854.69;;;17.15;73.80
44839;BME280;30576;42.098;24.876;2023-05-15T06:40:40;99851.28;;;17.12;72.99
44839;BME280;30576;42.098;24.876;2023-05-15T06:43:05;99854.31;;;17.03;71.10
44839;BME280;30576;42.098;24.876;2023-05-15T06:45:30;99843.22;;;16.66;71.11
44839;BME280;30576;42.098;24.876;2023-05-15T06:47:56;99849.44;;;16.90;70.59
44839;BME280;30576;42.098;24.876;2023-05-15T06:50:21;99845.41;;;17.02;71.45
44839;BME280;30576;42.098;24.876;2023-05-15T06:52:46;99842.50;;;17.08;71.52
44839;BME280;30576;42.098;24.876;2023-05-15T06:55:12;99852.44;;;17.27;69.25
44839;BME280;30576;42.098;24.876;2023-05-15T06:57:37;99851.47;;;17.07;70.78
44839;BME280;30576;42.098;24.876;2023-05-15T07:00:02;99849.41;;;17.14;71.15
44839;BME280;30576;42.098;24.876;2023-05-15T07:02:29;99848.44;;;17.16;72.29
44839;BME280;30576;42.098;24.876;2023-05-15T07:04:55;99841.59;;;17.31;71.04
44839;BME280;30576;42.098;24.876;2023-05-15T07:07:20;99841.72;;;17.50;70.43
44839;BME280;30576;42.098;24.876;2023-05-15T07:09:45;99834.25;;;17.38;70.16
44839;BME280;30576;42.098;24.876;2023-05-15T07:12:12;99835.38;;;17.53;70.05
44839;BME280;30576;42.098;24.876;2023-05-15T07:14:38;99844.47;;;17.49;69.87
44839;BME280;30576;42.098;24.876;2023-05-15T07:17:03;99840.72;;;17.53;71.44
44839;BME280;30576;42.098;24.876;2023-05-15T07:19:29;99835.13;;;17.59;69.25
44839;BME280;30576;42.098;24.876;2023-05-15T07:21:54;99831.22;;;17.68;70.00
44839;BME280;30576;42.098;24.876;2023-05-15T07:24:19;99830.56;;;17.63;68.35
44839;BME280;30576;42.098;24.876;2023-05-15T07:26:45;99834.88;;;17.65;67.58
44839;BME280;30576;42.098;24.876;2023-05-15T07:29:10;99842.44;;;17.98;66.18
44839;BME280;30576;42.098;24.876;2023-05-15T07:31:35;99830.66;;;18.02;67.42
44839;BME280;30576;42.098;24.876;2023-05-15T07:34:02;99831.88;;;17.95;66.97
44839;BME280;30576;42.098;24.876;2023-05-15T07:36:27;99833.34;;;18.02;67.51
44839;BME280;30576;42.098;24.876;2023-05-15T07:38:53;99817.78;;;17.92;66.54
44839;BME280;30576;42.098;24.876;2023-05-15T07:41:18;99816.50;;;17.80;67.37
44839;BME280;30576;42.098;24.876;2023-05-15T07:43:45;99819.97;;;17.82;67.59
44839;BME280;30576;42.098;24.876;2023-05-15T07:46:11;99813.28;;;17.71;67.34
44839;BME280;30576;42.098;24.876;2023-05-15T07:48:36;99822.63;;;17.61;69.14
44839;BME280;30576;42.098;24.876;2023-05-15T07:51:02;99810.66;;;17.70;68.54
44839;BME280;30576;42.098;24.876;2023-05-15T07:53:27;99820.19;;;17.98;66.67
44839;BME280;30576;42.098;24.876;2023-05-15T07:55:52;99816.91;;;18.12;67.46
44839;BME280;30576;42.098;24.876;2023-05-15T07:58:18;99819.69;;;17.88;67.70
44839;BME280;30576;42.098;24.876;2023-05-15T08:00:43;99823.94;;;17.94;67.29
44839;BME280;30576;42.098;24.876;2023-05-15T08:03:09;99828.41;;;17.93;66.99
44839;BME280;30576;42.098;24.876;2023-05-15T08:05:34;99838.19;;;18.13;65.83
44839;BME280;30576;42.098;24.876;2023-05-15T08:08:00;99842.94;;;18.06;64.64
44839;BME280;30576;42.098;24.876;2023-05-15T08:10:25;99851.06;;;18.24;65.06
44839;BME280;30576;42.098;24.876;2023-05-15T08:12:50;99844.94;;;18.22;66.53
44839;BME280;30576;42.098;24.876;2023-05-15T08:15:16;99842.00;;;18.68;66.22
44839;BME280;30576;42.098;24.876;2023-05-15T08:17:41;99857.78;;;18.93;63.05
44839;BME280;30576;42.098;24.876;2023-05-15T08:20:07;99856.34;;;18.86;64.83
44839;BME280;30576;42.098;24.876;2023-05-15T08:22:32;99860.09;;;18.82;63.73
44839;BME280;30576;42.098;24.876;2023-05-15T08:24:58;99857.56;;;18.58;64.36
44839;BME280;30576;42.098;24.876;2023-05-15T08:27:24;99855.50;;;18.65;65.62
44839;BME280;30576;42.098;24.876;2023-05-15T08:29:49;99856.16;;;18.30;65.99
44839;BME280;30576;42.098;24.876;2023-05-15T08:32:15;99844.53;;;18.31;68.79
44839;BME280;30576;42.098;24.876;2023-05-15T08:34:40;99837.09;;;18.58;63.96
44839;BME280;30576;42.098;24.876;2023-05-15T08:37:05;99837.28;;;18.93;63.82
44839;BME280;30576;42.098;24.876;2023-05-15T08:39:31;99846.25;;;18.72;63.28
44839;BME280;30576;42.098;24.876;2023-05-15T08:42:02;99842.94;;;18.67;63.34
44839;BME280;30576;42.098;24.876;2023-05-15T08:44:29;99840.09;;;19.09;63.99
44839;BME280;30576;42.098;24.876;2023-05-15T08:46:56;99836.84;;;19.22;63.39
44839;BME280;30576;42.098;24.876;2023-05-15T08:51:53;99836.09;;;19.55;60.95
44839;BME280;30576;42.098;24.876;2023-05-15T08:54:19;99833.34;;;19.39;62.35
44839;BME280;30576;42.098;24.876;2023-05-15T08:56:45;99837.78;;;19.02;63.39
44839;BME280;30576;42.098;24.876;2023-05-15T08:59:11;99837.19;;;18.95;65.95
44839;BME280;30576;42.098;24.876;2023-05-15T09:01:36;99821.28;;;18.54;63.86
44839;BME280;30576;42.098;24.876;2023-05-15T09:04:02;99820.03;;;18.42;64.36
44839;BME280;30576;42.098;24.876;2023-05-15T09:06:28;99814.34;;;18.50;62.89
44839;BME280;30576;42.098;24.876;2023-05-15T09:08:54;99809.50;;;18.58;63.81
44839;BME280;30576;42.098;24.876;2023-05-15T09:11:21;99804.03;;;18.80;62.72
44839;BME280;30576;42.098;24.876;2023-05-15T09:13:47;99802.00;;;19.23;61.57
44839;BME280;30576;42.098;24.876;2023-05-15T09:16:13;99801.84;;;19.26;62.81
44839;BME280;30576;42.098;24.876;2023-05-15T09:18:38;99800.44;;;19.37;61.18
44839;BME280;30576;42.098;24.876;2023-05-15T09:21:23;99795.66;;;19.07;60.75
44839;BME280;30576;42.098;24.876;2023-05-15T09:23:49;99787.63;;;19.43;61.66
44839;BME280;30576;42.098;24.876;2023-05-15T09:26:15;99781.22;;;19.28;61.43
44839;BME280;30576;42.098;24.876;2023-05-15T09:28:40;99774.72;;;18.98;61.26
44839;BME280;30576;42.098;24.876;2023-05-15T09:31:05;99776.88;;;19.08;62.47
44839;BME280;30576;42.098;24.876;2023-05-15T09:33:36;99780.06;;;19.34;61.71
44839;BME280;30576;42.098;24.876;2023-05-15T09:36:02;99780.38;;;19.28;61.82
44839;BME280;30576;42.098;24.876;2023-05-15T09:38:28;99793.75;;;19.28;60.31
44839;BME280;30576;42.098;24.876;2023-05-15T09:41:01;99803.16;;;19.18;59.98
44839;BME280;30576;42.098;24.876;2023-05-15T09:43:27;99797.06;;;19.33;59.74
44839;BME280;30576;42.098;24.876;2023-05-15T09:45:53;99782.47;;;18.85;61.18
44839;BME280;30576;42.098;24.876;2023-05-15T09:48:19;99782.25;;;19.26;63.16
44839;BME280;30576;42.098;24.876;2023-05-15T09:50:44;99773.91;;;19.32;63.15
44839;BME280;30576;42.098;24.876;2023-05-15T09:53:10;99764.13;;;19.13;64.81
44839;BME280;30576;42.098;24.876;2023-05-15T09:55:37;99766.84;;;18.94;68.57
44839;BME280;30576;42.098;24.876;2023-05-15T09:58:09;99748.06;;;19.32;65.36
44839;BME280;30576;42.098;24.876;2023-05-15T10:00:35;99758.22;;;19.43;66.42
44839;BME280;30576;42.098;24.876;2023-05-15T10:03:01;99746.06;;;19.19;64.71
44839;BME280;30576;42.098;24.876;2023-05-15T10:05:27;99737.53;;;19.10;65.89
44839;BME280;30576;42.098;24.876;2023-05-15T10:07:53;99725.81;;;19.49;64.93
44839;BME280;30576;42.098;24.876;2023-05-15T10:10:20;99734.28;;;19.93;62.57
44839;BME280;30576;42.098;24.876;2023-05-15T10:12:45;99722.16;;;19.68;63.11
44839;BME280;30576;42.098;24.876;2023-05-15T10:15:11;99732.22;;;20.31;60.14
44839;BME280;30576;42.098;24.876;2023-05-15T10:17:37;99733.00;;;20.00;58.34
44839;BME280;30576;42.098;24.876;2023-05-15T10:20:04;99719.19;;;20.08;61.22
44839;BME280;30576;42.098;24.876;2023-05-15T10:22:34;99712.97;;;20.41;60.42
44839;BME280;30576;42.098;24.876;2023-05-15T10:27:31;99708.47;;;20.41;61.27
44839;BME280;30576;42.098;24.876;2023-05-15T10:29:59;99714.16;;;20.19;63.32
44839;BME280;30576;42.098;24.876;2023-05-15T10:32:25;99710.09;;;20.28;61.37
44839;BME280;30576;42.098;24.876;2023-05-15T10:34:51;99711.13;;;20.25;61.13
44839;BME280;30576;42.098;24.876;2023-05-15T10:37:17;99709.09;;;20.62;57.70
44839;BME280;30576;42.098;24.876;2023-05-15T10:39:43;99714.00;;;20.38;64.10
44839;BME280;30576;42.098;24.876;2023-05-15T10:42:09;99709.63;;;20.69;60.36
44839;BME280;30576;42.098;24.876;2023-05-15T10:44:35;99708.13;;;20.95;58.58
44839;BME280;30576;42.098;24.876;2023-05-15T10:47:01;99700.44;;;20.41;59.51
44839;BME280;30576;42.098;24.876;2023-05-15T10:49:27;99697.06;;;19.88;58.57
44839;BME280;30576;42.098;24.876;2023-05-15T10:51:52;99687.81;;;20.59;58.18
44839;BME280;30576;42.098;24.876;2023-05-15T10:54:17;99695.50;;;20.97;58.82
44839;BME280;30576;42.098;24.876;2023-05-15T10:56:43;99692.94;;;21.10;57.51
44839;BME280;30576;42.098;24.876;2023-05-15T10:59:09;99695.94;;;20.89;57.79
44839;BME280;30576;42.098;24.876;2023-05-15T11:01:35;99698.63;;;21.05;57.88
44839;BME280;30576;42.098;24.876;2023-05-15T11:04:05;99697.88;;;21.18;58.90
44839;BME280;30576;42.098;24.876;2023-05-15T11:06:31;99689.19;;;20.98;58.28
44839;BME280;30576;42.098;24.876;2023-05-15T11:14:16;99690.94;;;20.83;58.95
44839;BME280;30576;42.098;24.876;2023-05-15T11:24:32;99705.72;;;21.21;57.25
44839;BME280;30576;42.098;24.876;2023-05-15T11:27:00;99707.06;;;21.14;56.33
44839;BME280;30576;42.098;24.876;2023-05-15T11:29:26;99715.31;;;20.79;56.79
44839;BME280;30576;42.098;24.876;2023-05-15T11:31:51;99713.78;;;20.74;61.08
44839;BME280;30576;42.098;24.876;2023-05-15T11:34:30;99714.44;;;20.46;61.88
44839;BME280;30576;42.098;24.876;2023-05-15T11:36:57;99711.66;;;19.98;63.86
44839;BME280;30576;42.098;24.876;2023-05-15T11:39:23;99706.13;;;19.85;61.55
44839;BME280;30576;42.098;24.876;2023-05-15T11:41:49;99703.63;;;20.32;60.15
44839;BME280;30576;42.098;24.876;2023-05-15T11:44:21;99705.03;;;20.39;60.51
44839;BME280;30576;42.098;24.876;2023-05-15T11:46:47;99702.84;;;20.62;59.09
44839;BME280;30576;42.098;24.876;2023-05-15T11:49:13;99697.66;;;20.58;58.63
44839;BME280;30576;42.098;24.876;2023-05-15T11:51:39;99697.50;;;20.93;58.38
44839;BME280;30576;42.098;24.876;2023-05-15T11:54:07;99683.91;;;20.97;58.93
44839;BME280;30576;42.098;24.876;2023-05-15T11:56:34;99679.88;;;20.73;58.93
44839;BME280;30576;42.098;24.876;2023-05-15T11:58:59;99672.16;;;20.83;58.16
44839;BME280;30576;42.098;24.876;2023-05-15T12:01:37;99681.63;;;20.74;58.28
44839;BME280;30576;42.098;24.876;2023-05-15T12:04:02;99683.78;;;20.68;58.72
44839;BME280;30576;42.098;24.876;2023-05-15T12:06:35;99701.47;;;20.86;58.23
44839;BME280;30576;42.098;24.876;2023-05-15T12:09:00;99689.06;;;20.85;60.36
44839;BME280;30576;42.098;24.876;2023-05-15T12:11:26;99672.69;;;20.74;60.58
44839;BME280;30576;42.098;24.876;2023-05-15T12:13:51;99676.31;;;20.89;59.34
44839;BME280;30576;42.098;24.876;2023-05-15T12:16:17;99684.91;;;20.80;60.29
44839;BME280;30576;42.098;24.876;2023-05-15T12:18:47;99677.78;;;20.95;59.72
44839;BME280;30576;42.098;24.876;2023-05-15T12:21:12;99680.88;;;21.03;59.53
44839;BME280;30576;42.098;24.876;2023-05-15T12:23:38;99693.78;;;21.26;60.36
44839;BME280;30576;42.098;24.876;2023-05-15T12:26:03;99708.59;;;21.18;59.97
44839;BME280;30576;42.098;24.876;2023-05-15T12:28:28;99708.00;;;20.82;59.68
44839;BME280;30576;42.098;24.876;2023-05-15T12:30:54;99697.28;;;21.13;59.84
44839;BME280;30576;42.098;24.876;2023-05-15T12:33:20;99688.91;;;21.33;57.92
44839;BME280;30576;42.098;24.876;2023-05-15T12:35:49;99693.75;;;21.12;59.41
44839;BME280;30576;42.098;24.876;2023-05-15T12:38:17;99687.19;;;21.02;59.24
44839;BME280;30576;42.098;24.876;2023-05-15T12:40:43;99685.66;;;21.28;58.51
44839;BME280;30576;42.098;24.876;2023-05-15T12:43:09;99684.19;;;20.92;60.37
44839;BME280;30576;42.098;24.876;2023-05-15T12:45:36;99684.09;;;20.62;59.92
44839;BME280;30576;42.098;24.876;2023-05-15T12:48:02;99681.41;;;20.62;58.88
44839;BME280;30576;42.098;24.876;2023-05-15T12:50:30;99676.66;;;20.51;59.71
44839;BME280;30576;42.098;24.876;2023-05-15T12:52:56;99672.16;;;20.03;61.08
44839;BME280;30576;42.098;24.876;2023-05-15T12:55:26;99659.09;;;20.13;62.67
44839;BME280;30576;42.098;24.876;2023-05-15T12:57:52;99653.50;;;20.34;63.91
44839;BME280;30576;42.098;24.876;2023-05-15T13:00:18;99659.63;;;20.52;64.92
44839;BME280;30576;42.098;24.876;2023-05-15T13:02:47;99648.31;;;20.31;63.30
44839;BME280;30576;42.098;24.876;2023-05-15T13:05:12;99649.88;;;20.35;64.08
44839;BME280;30576;42.098;24.876;2023-05-15T13:07:40;99652.09;;;20.90;61.92
44839;BME280;30576;42.098;24.876;2023-05-15T13:10:06;99654.81;;;21.35;57.89